Flight Track Log - Related Links

Times and Time Zones

All times are in EDT time to prevent confusion due to time zone crossing. See the XOJ549 flight status page for this flight to view local times or setup timezone preferences in your user account.

Time Position Orientation Groundspeed Altitude Reporting Facility
EDT Latitude Longitude Course Direction KTS MPH feet Rate Location/Type
Sun 10:14:25 AM 29.6286 -95.2611 36° Northeast 147 169 900  Level Houston Center
Sun 10:15:08 AM 29.6558 -95.2386 36° Northeast 206 237 2,800 2,276 Climbing Houston Center
Sun 10:15:52 AM 29.6769 -95.2722 306° West 216 249 4,200 2,457 Climbing Houston Center
Sun 10:16:53 AM 29.7058 -95.3539 292° West 265 305 7,100 2,902 Climbing Houston Center
Sun 10:17:54 AM 29.7281 -95.4422 286° West 284 327 10,100 1,918 Climbing Houston Center
Sun 10:18:55 AM 29.7536 -95.5350 288° West 301 346 11,000 1,033 Climbing Houston Center
Sun 10:19:56 AM 29.7861 -95.6536 288° West 319 367 12,200 1,707 Climbing Houston Center
Sun 10:20:58 AM 29.8172 -95.7681 287° West 371 427 14,500 2,341 Climbing Houston Center
Sun 10:21:59 AM 29.8481 -95.8833 287° West 377 434 17,000 2,459 Climbing Houston Center
Sun 10:23:00 AM 29.8794 -96.0000 287° West 382 440 19,500 2,361 Climbing Houston Center
Sun 10:24:01 AM 29.9092 -96.1056 288° West 380 437 21,800 2,459 Climbing Houston Center
Sun 10:25:02 AM 29.9392 -96.2442 284° West 374 430 24,500 1,805 Climbing Houston Center
Sun 10:26:04 AM 29.9603 -96.3664 281° West 391 450 25,500 976 Climbing Houston Center
Sun 10:27:05 AM 29.9903 -96.4961 285° West 415 478 26,500 984 Climbing Houston Center
Sun 10:28:06 AM 30.0217 -96.6328 285° West 437 503 27,500 1,180 Climbing Houston Center
Sun 10:29:07 AM 30.0531 -96.7714 285° West 449 517 28,900 1,415 Climbing Houston Center
Sun 10:30:09 AM 30.0842 -96.9092 285° West 447 514 30,400 1,561 Climbing Houston Center
Sun 10:31:10 AM 30.1167 -97.0572 284° West 448 516 32,100 1,426 Climbing Houston Center
Sun 10:32:11 AM 30.1475 -97.1992 284° West 449 517 33,300 1,033 Climbing Houston Center
Sun 10:33:12 AM 30.1800 -97.3431 285° West 455 524 34,200 878 Climbing Houston Center
Sun 10:34:14 AM 30.2114 -97.4914 284° West 466 536 35,100 878 Climbing Houston Center
Sun 10:35:15 AM 30.2442 -97.6400 284° West 470 541 36,000 885 Climbing Houston Center
Sun 10:36:16 AM 30.2775 -97.7908 284° West 476 548 36,900 984 Climbing Houston Center
Sun 10:37:17 AM 30.3192 -97.9600 286° West 474 545 38,000 878 Climbing Houston Center
Sun 10:38:19 AM 30.3539 -98.0886 287° West 477 549 38,700 829 Climbing Houston Center
Sun 10:39:20 AM 30.3953 -98.2356 288° West 475 547 39,700 934 Climbing Houston Center
Sun 10:40:21 AM 30.4350 -98.3808 288° West 472 543 40,600 787 Climbing Houston Center
Sun 10:41:22 AM 30.4744 -98.5219 288° West 460 529 41,300 639 Climbing Houston Center
Sun 10:42:23 AM 30.5125 -98.6636 287° West 455 524 41,900 585 Climbing Houston Center
Sun 10:43:25 AM 30.5511 -98.8042 288° West 453 521 42,500 537 Climbing Houston Center
Sun 10:44:26 AM 30.5944 -98.9658 287° West 447 514 43,000 246 Climbing Houston Center
Sun 10:45:27 AM 30.6314 -99.1053 287° West 448 516 43,000  Level Houston Center
Sun 10:46:28 AM 30.6675 -99.2400 287° West 454 522 43,000  Level Houston Center
Sun 10:47:30 AM 30.7047 -99.3814 287° West 459 528 43,000  Level Houston Center
Sun 10:48:31 AM 30.7439 -99.5225 288° West 461 531 43,000  Level Houston Center
Sun 10:49:32 AM 30.7803 -99.6656 287° West 463 533 43,000  Level Houston Center
Sun 10:50:34 AM 30.8169 -99.8053 287° West 468 539 43,000  Level Houston Center
Sun 10:51:35 AM 30.8539 -99.9469 287° West 470 541 43,000  Level Houston Center
Sun 10:52:36 AM 30.8975 -100.1183 287° West 475 547 43,000  Level Houston Center
Sun 10:53:37 AM 30.9342 -100.2578 287° West 466 536 43,000  Level Houston Center
Sun 10:54:38 AM 30.9711 -100.3989 287° West 462 532 43,000  Level Houston Center
Sun 10:55:40 AM 31.0064 -100.5417 286° West 461 531 43,000  Level Houston Center
Sun 10:56:41 AM 31.0422 -100.6800 287° West 451 519 43,000  Level Houston Center
Sun 10:57:42 AM 31.0783 -100.8203 287° West 453 521 43,000  Level Houston Center
Sun 10:58:43 AM 31.1144 -100.9619 287° West 452 520 43,000  Level Houston Center
Sun 10:59:45 AM 31.1500 -101.0997 287° West 447 514 43,000  Level Houston Center
Sun 11:00:46 AM 31.1919 -101.2714 286° West 454 522 43,000  Level Houston Center
Sun 11:01:47 AM 31.2244 -101.4019 286° West 454 522 43,000  Level Houston Center
Sun 11:02:49 AM 31.2592 -101.5433 286° West 454 522 43,000  Level Houston Center
Sun 11:03:50 AM 31.2903 -101.6850 284° West 452 520 43,000  Level Houston Center
Sun 11:04:51 AM 31.3322 -101.8539 286° West 454 522 43,000  Level Houston Center
Sun 11:05:53 AM 31.3678 -101.9944 287° West 453 521 43,000  Level Houston Center
Sun 11:06:54 AM 31.4050 -102.1364 287° West 462 532 43,000  Level Houston Center
Sun 11:07:55 AM 31.4383 -102.2803 285° West 467 537 43,000  Level Houston Center
Sun 11:08:57 AM 31.4692 -102.4239 284° West 465 535 43,000  Level Houston Center
Sun 11:09:58 AM 31.5008 -102.5653 285° West 458 527 43,000  Level Houston Center
Sun 11:11:00 AM 31.5403 -102.7372 285° West 457 526 43,000  Level Houston Center
Sun 11:12:01 AM 31.5744 -102.8806 286° West 459 528 43,000  Level Houston Center
Sun 11:13:02 AM 31.6072 -103.0250 285° West 459 528 43,000  Level Houston Center
Sun 11:14:04 AM 31.6400 -103.1703 285° West 460 529 43,000  Level Houston Center
Sun 11:15:24 AM 31.6858 -103.3708 285° West 459 528 43,000  Level Albuquerque Center
Sun 11:16:26 AM 31.7153 -103.5014 285° West 457 526 43,000  Level Albuquerque Center
Sun 11:17:27 AM 31.7467 -103.6456 284° West 456 525 43,000  Level Albuquerque Center
Sun 11:18:28 AM 31.7847 -103.8067 286° West 458 527 43,000  Level Albuquerque Center
Sun 11:19:29 AM 31.8178 -103.9492 285° West 456 525 43,000  Level Albuquerque Center
Sun 11:20:31 AM 31.8497 -104.0942 285° West 458 527 43,000  Level Albuquerque Center
Sun 11:21:33 AM 31.8842 -104.2428 285° West 467 537 43,000  Level Albuquerque Center
Sun 11:22:33 AM 31.9164 -104.3881 285° West 466 536 43,000  Level Albuquerque Center
Sun 11:23:34 AM 31.9478 -104.5319 284° West 460 529 43,000  Level Albuquerque Center
Sun 11:24:36 AM 31.9839 -104.7028 284° West 449 517 43,000  Level Albuquerque Center
Sun 11:25:37 AM 32.0144 -104.8450 284° West 449 517 43,000  Level Albuquerque Center
Sun 11:26:38 AM 32.0456 -104.9908 284° West 456 525 43,000  Level Albuquerque Center
Sun 11:27:39 AM 32.0772 -105.1378 284° West 461 531 43,000  Level Albuquerque Center
Sun 11:28:41 AM 32.1081 -105.2853 284° West 464 534 43,000  Level Albuquerque Center
Sun 11:29:42 AM 32.1389 -105.4289 284° West 460 529 43,000  Level Albuquerque Center
Sun 11:30:43 AM 32.1697 -105.5764 284° West 463 533 43,000  Level Albuquerque Center
Sun 11:31:44 AM 32.1997 -105.7219 284° West 459 528 43,000  Level Albuquerque Center
Sun 11:32:45 AM 32.2303 -105.8678 284° West 460 529 43,000  Level Albuquerque Center
Sun 11:33:46 AM 32.2669 -106.0442 284° West 462 532 43,000  Level Albuquerque Center
Sun 11:34:48 AM 32.2969 -106.1928 283° West 465 535 43,000  Level Albuquerque Center
Sun 11:35:49 AM 32.3269 -106.3394 284° West 464 534 43,000  Level Albuquerque Center
Sun 11:36:50 AM 32.3575 -106.4886 284° West 466 536 43,000  Level Albuquerque Center
Sun 11:37:51 AM 32.3867 -106.6369 283° West 465 535 43,000  Level Albuquerque Center
Sun 11:38:52 AM 32.4169 -106.7853 284° West 465 535 43,000  Level Albuquerque Center
Sun 11:39:53 AM 32.4456 -106.9356 283° West 468 539 43,000  Level Albuquerque Center
Sun 11:40:54 AM 32.4736 -107.0867 282° West 471 542 43,000  Level Albuquerque Center
Sun 11:41:56 AM 32.5050 -107.2458 283° West 469 540 43,000  Level Albuquerque Center
Sun 11:42:57 AM 32.5347 -107.3958 283° West 469 540 43,000  Level Albuquerque Center
Sun 11:43:58 AM 32.5631 -107.5531 282° West 469 540 43,000  Level Albuquerque Center
Sun 11:44:59 AM 32.5917 -107.7036 283° West 469 540 43,000  Level Albuquerque Center
Sun 11:46:00 AM 32.6189 -107.8489 283° West 469 540 43,000  Level Albuquerque Center
Sun 11:47:02 AM 32.6472 -108.0003 283° West 470 541 43,000  Level Albuquerque Center
Sun 11:48:03 AM 32.6819 -108.1822 283° West 471 542 43,000  Level Albuquerque Center
Sun 11:49:04 AM 32.7106 -108.3356 283° West 474 545 43,000  Level Albuquerque Center
Sun 11:50:05 AM 32.7386 -108.4878 282° West 474 545 43,000  Level Albuquerque Center
Sun 11:51:06 AM 32.7675 -108.6411 283° West 473 544 43,000  Level Albuquerque Center
Sun 11:52:07 AM 32.7956 -108.7992 282° West 476 548 43,000  Level Albuquerque Center
Sun 11:53:09 AM 32.8258 -108.9525 283° West 477 549 43,000  Level Albuquerque Center
Sun 11:54:10 AM 32.8508 -109.1108 281° West 475 547 43,000  Level Albuquerque Center
Sun 11:55:11 AM 32.8781 -109.2681 282° West 476 548 43,000  Level Albuquerque Center
Sun 11:56:12 AM 32.9064 -109.4231 282° West 477 549 43,000  Level Albuquerque Center
Sun 11:57:14 AM 32.9333 -109.5783 282° West 478 550 43,000  Level Albuquerque Center
Sun 11:58:15 AM 32.9603 -109.7331 282° West 478 550 43,000  Level Albuquerque Center
Sun 11:59:16 AM 32.9872 -109.8883 282° West 478 550 43,000  Level Albuquerque Center
Sun 12:00:18 PM 33.0144 -110.0433 282° West 478 550 43,000  Level Albuquerque Center
Sun 12:01:19 PM 33.0419 -110.2000 282° West 483 556 43,000  Level Albuquerque Center
Sun 12:02:20 PM 33.0733 -110.3858 281° West 479 551 43,000  Level Albuquerque Center
Sun 12:03:21 PM 33.0992 -110.5419 281° West 479 551 43,000  Level Albuquerque Center
Sun 12:04:23 PM 33.1250 -110.6950 281° West 479 551 43,000  Level Albuquerque Center
Sun 12:05:24 PM 33.1500 -110.8511 281° West 478 550 43,000  Level Albuquerque Center
Sun 12:06:25 PM 33.1750 -111.0056 281° West 476 548 43,000  Level Albuquerque Center
Sun 12:07:26 PM 33.2011 -111.1597 281° West 475 547 43,000  Level Albuquerque Center
Sun 12:08:28 PM 33.2247 -111.3164 280° West 478 550 43,000  Level Albuquerque Center
Sun 12:09:29 PM 33.2503 -111.4728 281° West 478 550 43,000  Level Albuquerque Center
Sun 12:10:30 PM 33.2744 -111.6289 281° West 478 550 43,000  Level Albuquerque Center
Sun 12:11:32 PM 33.2986 -111.7878 280° West 482 555 43,000  Level Albuquerque Center
Sun 12:12:33 PM 33.3281 -111.9761 281° West 480 552 43,000  Level Albuquerque Center
Sun 12:13:34 PM 33.3508 -112.1331 280° West 479 551 43,000  Level Albuquerque Center
Sun 12:14:36 PM 33.3744 -112.2919 280° West 482 555 43,000  Level Albuquerque Center
Sun 12:15:37 PM 33.3983 -112.4486 280° West 478 550 43,000  Level Albuquerque Center
Sun 12:16:38 PM 33.4239 -112.6128 281° West 477 549 43,000  Level Albuquerque Center
Sun 12:17:40 PM 33.4461 -112.7681 280° West 478 550 43,000  Level Albuquerque Center
Sun 12:18:41 PM 33.4725 -112.9231 282° West 477 549 43,000  Level Albuquerque Center
Sun 12:19:43 PM 33.5036 -113.0792 283° West 482 555 43,000  Level Albuquerque Center
Sun 12:20:44 PM 33.5325 -113.2333 283° West 479 551 43,000  Level Albuquerque Center
Sun 12:21:45 PM 33.5622 -113.3883 283° West 480 552 43,000  Level Albuquerque Center
Sun 12:22:47 PM 33.5908 -113.5422 283° West 477 549 43,000  Level Albuquerque Center
Sun 12:23:48 PM 33.6253 -113.7258 283° West 476 548 43,000  Level Albuquerque Center
Sun 12:24:50 PM 33.6769 -113.8686 294° West 475 547 43,000  Level Albuquerque Center
Sun 12:25:51 PM 33.7533 -114.0003 305° West 482 555 43,000  Level Albuquerque Center
Sun 12:26:53 PM 33.8283 -114.1325 304° West 481 554 43,000  Level Albuquerque Center
Sun 12:27:54 PM 33.9072 -114.2661 305° West 482 555 43,000 -49 Level Albuquerque Center
Sun 12:28:55 PM 33.9814 -114.3986 304° West 482 555 42,900  Descending Albuquerque Center
Sun 12:29:57 PM 34.0572 -114.5311 305° West 480 552 43,000 42 Climbing Albuquerque Center
Sun 12:31:17 PM 34.1569 -114.7050 305° West 475 547 43,000  Level Los Angeles Center
Sun 12:32:19 PM 34.2467 -114.8647 304° West 480 552 43,000  Level Los Angeles Center
Sun 12:33:20 PM 34.3214 -114.9983 304° West 479 551 43,000  Level Los Angeles Center
Sun 12:34:22 PM 34.3958 -115.1306 304° West 477 549 43,000  Level Los Angeles Center
Sun 12:35:23 PM 34.4686 -115.2625 304° West 475 547 43,000  Level Los Angeles Center
Sun 12:36:25 PM 34.5281 -115.3681 304° West 475 547 43,000 -390 Level Los Angeles Center
Sun 12:37:26 PM 34.6131 -115.5228 304° West 465 535 42,200 -2,098 Descending Los Angeles Center
Sun 12:38:28 PM 34.6922 -115.6719 303° West 466 536 38,700 -3,145 Descending Los Angeles Center
Sun 12:39:30 PM 34.7308 -115.8267 287° West 478 550 35,700 -2,927 Descending Los Angeles Center
Sun 12:40:31 PM 34.7469 -115.9883 277° West 482 555 32,700 -2,976 Descending Los Angeles Center
Sun 12:41:33 PM 34.7642 -116.1550 277° West 491 565 29,600 -2,976 Descending Los Angeles Center
Sun 12:42:34 PM 34.7828 -116.3211 278° West 498 573 26,600 -2,829 Descending Los Angeles Center
Sun 12:43:36 PM 34.7947 -116.4769 275° West 473 544 23,800 -1,839 Descending Los Angeles Center
Sun 12:44:38 PM 34.7811 -116.6258 264° West 446 513 22,800 -1,122 Descending Los Angeles Center
Sun 12:45:39 PM 34.7639 -116.8067 263° West 448 516 21,500 -1,122 Descending Los Angeles Center
Sun 12:46:41 PM 34.7486 -116.9519 263° West 436 502 20,500 -882 Descending Los Angeles Center
Sun 12:47:55 PM 34.7339 -117.0953 263° West 428 493 19,500 -1,015 Descending Los Angeles Center
Sun 12:48:57 PM 34.7167 -117.2628 263° West 416 479 18,200 -1,073 Descending Los Angeles Center
Sun 12:49:58 PM 34.7025 -117.3997 263° West 408 470 17,300 -976 Descending Los Angeles Center
Sun 12:51:00 PM 34.6842 -117.5342 261° West 404 465 16,200 -1,161 Descending Los Angeles Center
Sun 12:52:02 PM 34.6656 -117.6686 260° West 409 471 14,900 -1,268 Descending Los Angeles Center
Sun 12:53:03 PM 34.6472 -117.7967 260° West 396 456 13,600 -1,220 Descending Los Angeles Center
Sun 12:54:05 PM 34.6300 -117.9181 260° West 366 421 12,400 -774 Descending Los Angeles Center
Sun 12:55:07 PM 34.6100 -118.0589 260° West 353 406 12,000 -732 Descending Los Angeles Center
Sun 12:56:08 PM 34.5953 -118.1592 260° West 339 390 10,900 -1,220 Descending Los Angeles Center
Sun 12:57:10 PM 34.5806 -118.2589 260° West 306 352 9,500 -1,403 Descending Los Angeles Center
Sun 12:58:12 PM 34.5642 -118.3675 260° West 277 319 8,000 -662 Descending Los Angeles Center
Sun 12:59:26 PM 34.5439 -118.4403 251° West 233 268 8,000 -892 Level Los Angeles Center
Sun 01:00:40 PM 34.4703 -118.4681 197° South 239 275 5,800 -1,297 Descending Los Angeles Center
Sun 01:01:54 PM 34.3939 -118.4942 196° South 236 272 4,800 -992 Descending Los Angeles Center
Sun 01:02:53 PM 34.3333 -118.5000 185° South 194 223 3,600 -1,261 Descending Southern California TRACON
Sun 01:03:53 PM 34.2667 -118.5000 180° South 186 214 2,300 -1,200 Descending Southern California TRACON
Sun 01:04:53 PM 34.2333 -118.5000 180° South 145 167 1,200 -1,100 Descending Southern California TRACON
Sun 01:06:00 PM 34.2098 -118.4900 180° South  Level Estimated
Sun 01:13:00 PM 34.2098 -118.4900 180° South  Level Estimated
Sun 01:14:00 PM 34.2098 -118.4900 180° South  Level Estimated

Login

Don't have an account? Register now (free) for customized features, flight alerts, and more!